createdAt,value
2022-08-01T00:00:26.647Z,0.00
2022-08-01T00:01:26.634Z,0.00
2022-08-01T00:02:26.688Z,0.00
2022-08-01T00:03:26.609Z,0.00
2022-08-01T00:04:26.607Z,0.00
2022-08-01T00:05:26.615Z,0.00
2022-08-01T00:06:26.583Z,0.00
2022-08-01T00:07:26.567Z,0.00
2022-08-01T00:08:26.575Z,0.00
2022-08-01T00:09:26.549Z,0.00
2022-08-01T00:10:26.558Z,0.00
2022-08-01T00:11:26.526Z,0.00
2022-08-01T00:12:26.516Z,0.00
2022-08-01T00:13:26.499Z,0.00
2022-08-01T00:14:32.174Z,0.00
2022-08-01T00:15:27.504Z,0.00
2022-08-01T00:16:26.472Z,0.00
2022-08-01T00:17:26.461Z,0.00
2022-08-01T00:18:26.451Z,0.00
2022-08-01T00:19:26.436Z,0.00
2022-08-01T00:20:26.439Z,0.00
2022-08-01T00:21:26.420Z,0.00
2022-08-01T00:22:26.414Z,0.00
2022-08-01T00:23:26.397Z,0.00
2022-08-01T00:24:26.384Z,0.00
2022-08-01T00:25:34.474Z,0.00
2022-08-01T00:26:27.360Z,0.00
2022-08-01T00:27:26.346Z,0.00
2022-08-01T00:28:26.339Z,0.00
2022-08-01T00:30:10.312Z,0.00
2022-08-01T00:30:27.331Z,0.00
2022-08-01T00:31:26.303Z,0.00
2022-08-01T00:32:26.312Z,0.00
2022-08-01T00:33:26.282Z,0.00
2022-08-01T00:34:26.273Z,0.00
2022-08-01T00:35:26.277Z,0.00
2022-08-01T00:36:26.249Z,0.00
2022-08-01T00:37:26.233Z,0.00
2022-08-01T00:38:26.228Z,0.00
2022-08-01T00:39:26.228Z,0.00
2022-08-01T00:40:26.225Z,0.00
2022-08-01T00:41:26.191Z,0.00
2022-08-01T00:42:26.184Z,0.00
2022-08-01T00:43:26.169Z,0.00
2022-08-01T00:44:26.171Z,0.00
2022-08-01T00:45:26.161Z,0.00
2022-08-01T00:46:26.140Z,0.00
2022-08-01T00:47:26.131Z,0.00
2022-08-01T00:48:26.119Z,0.00
2022-08-01T00:49:26.185Z,0.00
2022-08-01T00:50:26.116Z,0.00
2022-08-01T00:51:26.089Z,0.00
2022-08-01T00:52:26.076Z,0.00
2022-08-01T00:53:26.059Z,0.00
2022-08-01T00:54:26.057Z,0.00
2022-08-01T00:55:26.041Z,0.00
2022-08-01T00:56:26.052Z,0.00
2022-08-01T00:58:01.759Z,0.00
2022-08-01T00:58:27.005Z,0.00
2022-08-01T00:59:25.994Z,0.00
2022-08-01T01:00:27.305Z,0.00
2022-08-01T01:01:26.134Z,0.00
2022-08-01T01:02:26.975Z,0.00
2022-08-01T01:04:26.941Z,0.00
2022-08-01T01:05:25.939Z,0.00
2022-08-01T01:06:27.162Z,0.00
2022-08-01T01:07:25.910Z,0.00
2022-08-01T01:08:25.900Z,0.00
2022-08-01T01:09:25.888Z,0.00
2022-08-01T01:10:25.891Z,0.00
2022-08-01T01:11:25.862Z,0.00
2022-08-01T01:12:25.856Z,0.00
2022-08-01T01:13:25.838Z,0.00
2022-08-01T01:14:25.839Z,0.00
2022-08-01T01:15:25.846Z,0.00
2022-08-01T01:16:25.811Z,0.00
2022-08-01T01:17:49.749Z,0.00
2022-08-01T01:18:26.790Z,0.00
2022-08-01T01:19:25.772Z,0.00
2022-08-01T01:20:25.775Z,0.00
2022-08-01T01:21:25.758Z,0.00
2022-08-01T01:22:25.742Z,0.00
2022-08-01T01:23:25.730Z,0.00
2022-08-01T01:24:25.721Z,0.00
2022-08-01T01:25:25.721Z,0.00
2022-08-01T01:26:25.702Z,0.00
2022-08-01T01:27:25.680Z,0.00
2022-08-01T01:28:25.678Z,0.00
2022-08-01T01:29:25.669Z,0.00
2022-08-01T01:30:25.683Z,0.00
2022-08-01T01:31:25.640Z,0.00
2022-08-01T01:32:28.651Z,0.00
2022-08-01T01:33:26.619Z,0.00
2022-08-01T01:34:25.607Z,0.00
2022-08-01T01:35:25.591Z,0.00
2022-08-01T01:36:25.606Z,0.00
2022-08-01T01:37:25.570Z,0.00
2022-08-01T01:38:25.565Z,0.00
2022-08-01T01:39:25.555Z,0.00
2022-08-01T01:40:25.550Z,0.00
2022-08-01T01:41:25.543Z,0.00
2022-08-01T01:42:25.531Z,0.00
2022-08-01T01:43:29.159Z,0.00
2022-08-01T01:44:26.504Z,0.00
2022-08-01T01:45:25.482Z,0.00
2022-08-01T01:46:25.493Z,0.00
2022-08-01T01:47:25.476Z,0.00
2022-08-01T01:48:25.458Z,0.00
2022-08-01T01:49:25.488Z,0.00
2022-08-01T01:50:25.439Z,0.00
2022-08-01T01:51:25.435Z,0.00
2022-08-01T01:52:25.416Z,0.00
2022-08-01T01:53:25.398Z,0.00
2022-08-01T01:54:25.395Z,0.00
2022-08-01T01:55:25.381Z,0.00
2022-08-01T01:56:25.384Z,0.00
2022-08-01T01:57:25.355Z,0.00
2022-08-01T01:58:25.347Z,0.00
2022-08-01T01:59:25.784Z,0.00
2022-08-01T02:00:25.335Z,0.00
2022-08-01T02:01:58.830Z,0.00
2022-08-01T02:02:26.329Z,0.00
2022-08-01T02:03:25.287Z,0.00
2022-08-01T02:04:25.563Z,0.00
2022-08-01T02:05:25.269Z,0.00
2022-08-01T02:06:25.281Z,0.00
2022-08-01T02:07:25.255Z,0.00
2022-08-01T02:08:25.237Z,0.00
2022-08-01T02:09:25.222Z,0.00
2022-08-01T02:10:28.538Z,0.00
2022-08-01T02:11:25.207Z,0.00
2022-08-01T02:12:25.202Z,0.00
2022-08-01T02:13:25.185Z,0.00
2022-08-01T02:14:25.172Z,0.00
2022-08-01T02:15:25.160Z,0.00
2022-08-01T02:16:25.143Z,0.00
2022-08-01T02:17:25.152Z,0.00
2022-08-01T02:18:25.123Z,0.00
2022-08-01T02:19:25.131Z,0.00
2022-08-01T02:20:25.099Z,0.00
2022-08-01T02:21:25.095Z,0.00
2022-08-01T02:22:25.093Z,0.00
2022-08-01T02:23:25.078Z,0.00
2022-08-01T02:24:30.560Z,0.00
2022-08-01T02:25:26.051Z,0.00
2022-08-01T02:26:25.031Z,0.00
2022-08-01T02:27:25.043Z,0.00
2022-08-01T02:28:25.011Z,0.00
2022-08-01T02:29:25.007Z,0.00
2022-08-01T02:30:24.994Z,0.00
2022-08-01T02:31:24.992Z,0.00
2022-08-01T02:32:24.981Z,0.00
2022-08-01T02:33:24.960Z,0.00
2022-08-01T02:34:24.951Z,0.00
2022-08-01T02:35:24.947Z,0.00
2022-08-01T02:36:32.603Z,0.00
2022-08-01T02:37:24.930Z,0.00
2022-08-01T02:38:24.904Z,0.00
2022-08-01T02:39:24.901Z,0.00
2022-08-01T02:40:24.882Z,0.00
2022-08-01T02:41:25.977Z,0.00
2022-08-01T02:42:24.872Z,0.00
2022-08-01T02:43:24.849Z,0.00
2022-08-01T02:44:24.836Z,0.00
2022-08-01T02:45:24.833Z,0.00
2022-08-01T02:46:24.823Z,0.00
2022-08-01T02:47:24.825Z,0.00
2022-08-01T02:48:24.789Z,0.00
2022-08-01T02:49:24.825Z,0.00
2022-08-01T02:50:24.770Z,0.00
2022-08-01T02:51:24.760Z,0.00
2022-08-01T02:52:24.763Z,0.00
2022-08-01T02:53:39.052Z,0.00
2022-08-01T02:54:25.739Z,0.00
2022-08-01T02:55:24.716Z,0.00
2022-08-01T02:56:24.703Z,0.00
2022-08-01T02:57:30.744Z,0.00
2022-08-01T02:58:29.476Z,0.00
2022-08-01T02:59:24.669Z,0.00
2022-08-01T03:00:24.995Z,0.00
2022-08-01T03:01:24.691Z,0.00
2022-08-01T03:02:24.639Z,0.00
2022-08-01T03:03:24.643Z,0.00
2022-08-01T03:04:24.630Z,0.00
2022-08-01T03:05:24.608Z,0.00
2022-08-01T03:06:24.595Z,0.00
2022-08-01T03:07:24.584Z,0.00
2022-08-01T03:08:25.603Z,0.00
2022-08-01T03:09:24.561Z,0.00
2022-08-01T03:10:24.548Z,0.00
2022-08-01T03:11:24.545Z,0.00
2022-08-01T03:12:24.534Z,0.00
2022-08-01T03:13:24.521Z,0.00
2022-08-01T03:14:24.522Z,0.00
2022-08-01T03:15:24.499Z,0.00
2022-08-01T03:16:24.509Z,0.00
2022-08-01T03:17:24.474Z,0.00
2022-08-01T03:18:24.461Z,0.00
2022-08-01T03:19:24.468Z,0.00
2022-08-01T03:20:24.445Z,0.00
2022-08-01T03:21:24.445Z,0.00
2022-08-01T03:22:24.416Z,0.00
2022-08-01T03:23:24.406Z,0.00
2022-08-01T03:24:25.392Z,0.00
2022-08-01T03:25:24.385Z,0.00
2022-08-01T03:26:24.386Z,0.00
2022-08-01T03:27:24.370Z,0.00
2022-08-01T03:28:24.353Z,0.00
2022-08-01T03:30:37.784Z,0.00
2022-08-01T03:31:37.791Z,4.00
2022-08-01T03:32:37.763Z,0.00
2022-08-01T03:33:37.772Z,0.00
2022-08-01T03:34:37.756Z,0.00
2022-08-01T03:35:37.732Z,0.00
2022-08-01T03:36:37.784Z,0.00
2022-08-01T03:37:37.781Z,4.00
2022-08-01T03:38:37.693Z,0.00
2022-08-01T03:39:37.687Z,0.00
2022-08-01T03:40:37.673Z,4.00
2022-08-01T03:41:37.701Z,0.00
2022-08-01T03:42:37.664Z,4.00
2022-08-01T03:43:37.650Z,4.00
2022-08-01T03:44:37.634Z,4.00
2022-08-01T03:45:37.616Z,4.00
2022-08-01T03:46:37.631Z,4.00
2022-08-01T03:47:43.497Z,4.00
2022-08-01T03:48:38.584Z,8.00
2022-08-01T03:49:37.640Z,8.00
2022-08-01T03:50:37.565Z,4.00
2022-08-01T03:51:37.552Z,4.00
2022-08-01T03:52:37.607Z,8.00
2022-08-01T03:53:37.540Z,8.00
2022-08-01T03:54:37.522Z,8.00
2022-08-01T03:55:37.509Z,8.00
2022-08-01T03:56:37.499Z,8.00
2022-08-01T03:57:37.491Z,8.00
2022-08-01T03:58:37.511Z,8.00
2022-08-01T03:59:37.470Z,8.00
2022-08-01T04:00:37.450Z,8.00
2022-08-01T04:01:37.590Z,8.00
2022-08-01T04:02:37.454Z,8.00
2022-08-01T04:03:41.690Z,8.00
2022-08-01T04:04:38.426Z,12.00
2022-08-01T04:05:37.400Z,12.00
2022-08-01T04:06:37.385Z,12.00
2022-08-01T04:07:37.383Z,12.00
2022-08-01T04:08:37.389Z,16.00
2022-08-01T04:09:37.357Z,12.00
2022-08-01T04:10:37.339Z,12.00
2022-08-01T04:11:37.351Z,16.00
2022-08-01T04:12:37.323Z,16.00
2022-08-01T04:13:38.486Z,16.00
2022-08-01T04:14:37.296Z,16.00
2022-08-01T04:15:37.289Z,16.00
2022-08-01T04:16:37.273Z,20.00
2022-08-01T04:17:37.265Z,20.00
2022-08-01T04:18:37.276Z,16.00
2022-08-01T04:19:37.240Z,16.00
2022-08-01T04:20:37.230Z,16.00
2022-08-01T04:21:37.225Z,16.00
2022-08-01T04:22:38.092Z,12.00
2022-08-01T04:23:37.211Z,16.00
2022-08-01T04:24:37.212Z,16.00
2022-08-01T04:25:37.175Z,16.00
2022-08-01T04:26:37.165Z,16.00
2022-08-01T04:27:50.743Z,20.00
2022-08-01T04:28:38.155Z,20.00
2022-08-01T04:29:37.132Z,20.00
2022-08-01T04:30:37.119Z,24.00
2022-08-01T04:31:37.139Z,28.00
2022-08-01T04:32:37.093Z,32.00
2022-08-01T04:33:37.102Z,36.00
2022-08-01T04:34:37.088Z,32.00
2022-08-01T04:36:02.429Z,36.00
2022-08-01T04:36:38.052Z,32.00
2022-08-01T04:37:37.056Z,28.00
2022-08-01T04:38:37.038Z,24.00
2022-08-01T04:39:50.682Z,24.00
2022-08-01T04:40:38.010Z,24.00
2022-08-01T04:41:37.005Z,24.00
2022-08-01T04:42:36.986Z,24.00
2022-08-01T04:43:37.002Z,24.00
2022-08-01T04:44:36.991Z,24.00
2022-08-01T04:45:36.959Z,32.00
2022-08-01T04:46:36.942Z,44.00
2022-08-01T04:47:36.932Z,52.00
2022-08-01T04:48:36.921Z,60.00
2022-08-01T04:49:47.737Z,64.00
2022-08-01T04:50:37.930Z,68.00
2022-08-01T04:51:36.885Z,76.00
2022-08-01T04:52:36.892Z,76.00
2022-08-01T04:53:36.866Z,68.00
2022-08-01T04:54:36.857Z,72.00
2022-08-01T04:55:36.844Z,68.00
2022-08-01T04:56:36.877Z,60.00
2022-08-01T04:57:36.820Z,48.00
2022-08-01T04:58:36.811Z,48.00
2022-08-01T04:59:36.800Z,44.00
2022-08-01T05:00:36.817Z,44.00
2022-08-01T05:01:36.907Z,44.00
2022-08-01T05:02:36.789Z,44.00
2022-08-01T05:03:39.016Z,48.00
2022-08-01T05:04:36.745Z,48.00
2022-08-01T05:05:36.731Z,48.00
2022-08-01T05:06:36.743Z,52.00
2022-08-01T05:07:44.310Z,56.00
2022-08-01T05:08:37.702Z,68.00
2022-08-01T05:09:36.710Z,80.00
2022-08-01T05:10:36.689Z,96.00
2022-08-01T05:11:36.680Z,108.00
2022-08-01T05:12:36.658Z,120.00
2022-08-01T05:13:36.643Z,144.00
2022-08-01T05:14:36.656Z,164.00
2022-08-01T05:15:36.622Z,172.00
2022-08-01T05:16:36.636Z,184.00
2022-08-01T05:17:36.598Z,200.00
2022-08-01T05:18:36.601Z,204.00
2022-08-01T05:19:36.600Z,212.00
2022-08-01T05:20:36.574Z,228.00
2022-08-01T05:21:36.572Z,240.00
2022-08-01T05:22:36.662Z,248.00
2022-08-01T05:23:43.078Z,296.00
2022-08-01T05:24:37.528Z,284.00
2022-08-01T05:25:58.064Z,308.00
2022-08-01T05:26:37.522Z,344.00
2022-08-01T05:27:36.490Z,332.00
2022-08-01T05:28:36.482Z,352.00
2022-08-01T05:29:38.405Z,356.00
2022-08-01T05:30:36.486Z,360.00
2022-08-01T05:31:36.449Z,348.00
2022-08-01T05:32:36.451Z,344.00
2022-08-01T05:33:36.423Z,336.00
2022-08-01T05:34:36.412Z,324.00
2022-08-01T05:35:48.889Z,308.00
2022-08-01T05:36:37.418Z,304.00
2022-08-01T05:37:36.392Z,336.00
2022-08-01T05:38:36.375Z,324.00
2022-08-01T05:39:36.358Z,356.00
2022-08-01T05:40:36.349Z,376.00
2022-08-01T05:41:36.335Z,420.00
2022-08-01T05:42:36.363Z,388.00
2022-08-01T05:43:36.342Z,388.00
2022-08-01T05:44:36.308Z,364.00
2022-08-01T05:45:36.295Z,348.00
2022-08-01T05:46:36.284Z,336.00
2022-08-01T05:47:36.271Z,340.00
2022-08-01T05:48:36.278Z,344.00
2022-08-01T05:49:36.292Z,376.00
2022-08-01T05:50:36.254Z,388.00
2022-08-01T05:51:36.231Z,404.00
2022-08-01T05:52:36.218Z,452.00
2022-08-01T05:53:36.232Z,412.00
2022-08-01T05:54:36.194Z,332.00
2022-08-01T05:55:36.189Z,344.00
2022-08-01T05:56:36.194Z,308.00
2022-08-01T05:57:36.158Z,256.00
2022-08-01T05:58:36.150Z,256.00
2022-08-01T05:59:36.153Z,264.00
2022-08-01T06:00:36.130Z,264.00
2022-08-01T06:01:36.175Z,264.00
2022-08-01T06:02:36.210Z,232.00
2022-08-01T06:03:36.093Z,212.00
2022-08-01T06:04:36.098Z,208.00
2022-08-01T06:05:36.068Z,204.00
2022-08-01T06:06:36.067Z,180.00
2022-08-01T06:07:36.048Z,152.00
2022-08-01T06:08:36.089Z,156.00
2022-08-01T06:09:36.027Z,172.00
2022-08-01T06:10:36.023Z,188.00
2022-08-01T06:11:36.005Z,172.00
2022-08-01T06:12:36.064Z,180.00
2022-08-01T06:13:48.260Z,176.00
2022-08-01T06:14:37.018Z,172.00
2022-08-01T06:15:35.967Z,176.00
2022-08-01T06:16:35.951Z,176.00
2022-08-01T06:17:35.938Z,192.00
2022-08-01T06:18:35.929Z,208.00
2022-08-01T06:19:35.951Z,236.00
2022-08-01T06:20:35.909Z,276.00
2022-08-01T06:21:35.913Z,316.00
2022-08-01T06:22:35.891Z,372.00
2022-08-01T06:23:35.876Z,420.00
2022-08-01T06:24:35.861Z,444.00
2022-08-01T06:25:35.868Z,484.00
2022-08-01T06:26:35.841Z,504.00
2022-08-01T06:27:35.861Z,508.00
2022-08-01T06:28:35.820Z,512.00
2022-08-01T06:29:35.807Z,512.00
2022-08-01T06:30:35.906Z,492.00
2022-08-01T06:31:35.784Z,524.00
2022-08-01T06:32:35.778Z,516.00
2022-08-01T06:33:35.791Z,520.00
2022-08-01T06:34:35.756Z,456.00
2022-08-01T06:35:35.740Z,364.00
2022-08-01T06:36:35.749Z,356.00
2022-08-01T06:37:35.720Z,400.00
2022-08-01T06:38:35.713Z,332.00
2022-08-01T06:39:35.696Z,340.00
2022-08-01T06:40:35.708Z,380.00
2022-08-01T06:41:35.690Z,428.00
2022-08-01T06:42:35.673Z,508.00
2022-08-01T06:43:35.649Z,564.00
2022-08-01T06:44:35.654Z,580.00
2022-08-01T06:45:35.664Z,580.00
2022-08-01T06:46:35.636Z,612.00
2022-08-01T06:47:35.607Z,680.00
2022-08-01T06:48:35.598Z,740.00
2022-08-01T06:49:35.607Z,784.00
2022-08-01T06:50:35.577Z,824.00
2022-08-01T06:51:35.599Z,848.00
2022-08-01T06:52:35.556Z,756.00
2022-08-01T06:53:36.731Z,772.00
2022-08-01T06:54:35.534Z,792.00
2022-08-01T06:55:35.516Z,868.00
2022-08-01T06:56:35.545Z,744.00
2022-08-01T06:57:35.526Z,692.00
2022-08-01T06:58:35.665Z,700.00
2022-08-01T06:59:35.475Z,760.00
2022-08-01T07:00:35.523Z,824.00
2022-08-01T07:01:35.479Z,904.00
2022-08-01T07:02:35.460Z,776.00
2022-08-01T07:03:52.700Z,684.00
2022-08-01T07:04:36.422Z,648.00
2022-08-01T07:05:35.409Z,636.00
2022-08-01T07:06:35.407Z,604.00
2022-08-01T07:07:35.410Z,636.00
2022-08-01T07:08:35.379Z,580.00
2022-08-01T07:09:35.383Z,580.00
2022-08-01T07:10:35.358Z,572.00
2022-08-01T07:11:35.343Z,496.00
2022-08-01T07:12:35.334Z,480.00
2022-08-01T07:13:36.834Z,512.00
2022-08-01T07:14:36.314Z,464.00
2022-08-01T07:15:35.323Z,460.00
2022-08-01T07:16:35.298Z,512.00
2022-08-01T07:17:35.288Z,552.00
2022-08-01T07:18:35.285Z,484.00
2022-08-01T07:19:35.255Z,496.00
2022-08-01T07:20:50.229Z,424.00
2022-08-01T07:21:40.329Z,436.00
2022-08-01T07:22:35.224Z,428.00
2022-08-01T07:23:36.767Z,412.00
2022-08-01T07:24:35.202Z,408.00
2022-08-01T07:25:35.190Z,384.00
2022-08-01T07:26:35.202Z,384.00
2022-08-01T07:27:35.180Z,364.00
2022-08-01T07:28:35.156Z,328.00
2022-08-01T07:29:36.158Z,300.00
2022-08-01T07:30:35.136Z,296.00
2022-08-01T07:31:35.123Z,272.00
2022-08-01T07:32:35.130Z,268.00
2022-08-01T07:33:48.710Z,280.00
2022-08-01T07:34:36.109Z,280.00
2022-08-01T07:35:35.084Z,260.00
2022-08-01T07:36:35.071Z,248.00
2022-08-01T07:37:46.109Z,224.00
2022-08-01T07:38:36.083Z,232.00
2022-08-01T07:39:35.038Z,264.00
2022-08-01T07:40:35.025Z,300.00
2022-08-01T07:41:45.649Z,344.00
2022-08-01T07:42:36.008Z,392.00
2022-08-01T07:43:34.991Z,464.00
2022-08-01T07:44:35.050Z,528.00
2022-08-01T07:45:34.968Z,580.00
2022-08-01T07:46:34.955Z,620.00
2022-08-01T07:47:34.947Z,656.00
2022-08-01T07:48:34.937Z,696.00
2022-08-01T07:49:39.364Z,716.00
2022-08-01T07:50:34.931Z,632.00
2022-08-01T07:51:34.929Z,684.00
2022-08-01T07:52:34.894Z,676.00
2022-08-01T07:53:34.879Z,636.00
2022-08-01T07:54:35.153Z,680.00
2022-08-01T07:55:34.868Z,608.00
2022-08-01T07:56:34.849Z,552.00
2022-08-01T07:57:34.854Z,588.00
2022-08-01T07:58:34.828Z,648.00
2022-08-01T07:59:34.816Z,636.00
2022-08-01T08:00:34.817Z,644.00
2022-08-01T08:01:34.833Z,636.00
2022-08-01T08:02:34.782Z,596.00
2022-08-01T08:03:34.781Z,576.00
2022-08-01T08:04:34.761Z,564.00
2022-08-01T08:05:57.689Z,564.00
2022-08-01T08:06:35.742Z,556.00
2022-08-01T08:07:34.741Z,608.00
2022-08-01T08:08:34.721Z,600.00
2022-08-01T08:09:38.041Z,672.00
2022-08-01T08:10:34.745Z,672.00
2022-08-01T08:11:34.681Z,768.00
2022-08-01T08:12:34.672Z,780.00
2022-08-01T08:13:34.664Z,816.00
2022-08-01T08:14:34.682Z,848.00
2022-08-01T08:15:34.650Z,848.00
2022-08-01T08:16:34.628Z,824.00
2022-08-01T08:17:35.869Z,828.00
2022-08-01T08:18:34.617Z,868.00
2022-08-01T08:19:38.126Z,876.00
2022-08-01T08:20:34.601Z,920.00
2022-08-01T08:21:34.598Z,924.00
2022-08-01T08:22:34.563Z,948.00
2022-08-01T08:23:42.848Z,1040.00
2022-08-01T08:24:35.562Z,1036.00
2022-08-01T08:25:34.553Z,1108.00
2022-08-01T08:26:34.518Z,1192.00
2022-08-01T08:27:34.504Z,1284.00
2022-08-01T08:28:34.506Z,1152.00
2022-08-01T08:29:34.512Z,1064.00
2022-08-01T08:30:34.475Z,904.00
2022-08-01T08:31:51.718Z,840.00
2022-08-01T08:32:35.452Z,716.00
2022-08-01T08:33:34.438Z,668.00
2022-08-01T08:34:34.431Z,668.00
2022-08-01T08:35:53.475Z,660.00
2022-08-01T08:36:35.418Z,628.00
2022-08-01T08:37:38.924Z,568.00
2022-08-01T08:38:34.387Z,512.00
2022-08-01T08:39:41.289Z,536.00
2022-08-01T08:40:35.402Z,600.00
2022-08-01T08:41:37.922Z,700.00
2022-08-01T08:42:34.341Z,724.00
2022-08-01T08:43:34.328Z,792.00
2022-08-01T08:44:34.318Z,836.00
2022-08-01T08:45:59.593Z,856.00
2022-08-01T08:46:35.354Z,860.00
2022-08-01T08:47:34.281Z,812.00
2022-08-01T08:48:34.276Z,780.00
2022-08-01T08:49:36.177Z,728.00
2022-08-01T08:50:34.264Z,616.00
2022-08-01T08:51:34.245Z,668.00
2022-08-01T08:52:34.268Z,664.00
2022-08-01T08:53:34.891Z,620.00
2022-08-01T08:54:34.209Z,736.00
2022-08-01T08:55:34.195Z,808.00
2022-08-01T08:56:35.186Z,788.00
2022-08-01T08:57:34.174Z,952.00
2022-08-01T08:58:34.206Z,1044.00
2022-08-01T08:59:34.148Z,1148.00
2022-08-01T09:00:34.138Z,1220.00
2022-08-01T09:01:34.124Z,1232.00
2022-08-01T09:02:34.123Z,1344.00
2022-08-01T09:03:34.193Z,1408.00
2022-08-01T09:04:34.129Z,1408.00
2022-08-01T09:05:39.245Z,1404.00
2022-08-01T09:06:35.069Z,1388.00
2022-08-01T09:07:34.066Z,1348.00
2022-08-01T09:08:34.071Z,1296.00
2022-08-01T09:09:34.041Z,1260.00
2022-08-01T09:10:34.046Z,1196.00
2022-08-01T09:11:34.019Z,1160.00
2022-08-01T09:12:34.009Z,1148.00
2022-08-01T09:13:33.998Z,1132.00
2022-08-01T09:14:33.998Z,1136.00
2022-08-01T09:15:34.054Z,1128.00
2022-08-01T09:16:33.986Z,1064.00
2022-08-01T09:17:33.955Z,1072.00
2022-08-01T09:18:33.939Z,1088.00
2022-08-01T09:19:40.156Z,1160.00
2022-08-01T09:20:34.921Z,1196.00
2022-08-01T09:21:33.908Z,1344.00
2022-08-01T09:22:33.928Z,1460.00
2022-08-01T09:23:33.885Z,1556.00
2022-08-01T09:24:33.884Z,1640.00
2022-08-01T09:25:43.732Z,1740.00
2022-08-01T09:26:34.864Z,1796.00
2022-08-01T09:27:33.897Z,1888.00
2022-08-01T09:28:33.830Z,1968.00
2022-08-01T09:29:37.812Z,1964.00
2022-08-01T09:30:34.816Z,1872.00
2022-08-01T09:31:38.367Z,1968.00
2022-08-01T09:32:36.466Z,2012.00
2022-08-01T09:33:35.029Z,2092.00
2022-08-01T09:34:33.771Z,2008.00
2022-08-01T09:35:36.247Z,1988.00
2022-08-01T09:36:34.759Z,2216.00
2022-08-01T09:37:37.498Z,2180.00
2022-08-01T09:38:33.751Z,2084.00
2022-08-01T09:39:33.726Z,2020.00
2022-08-01T09:40:33.732Z,1996.00
2022-08-01T09:41:37.809Z,1956.00
2022-08-01T09:42:34.676Z,1880.00
2022-08-01T09:43:33.672Z,1872.00
2022-08-01T09:44:40.006Z,1892.00
2022-08-01T09:45:41.252Z,1876.00
2022-08-01T09:46:34.631Z,1880.00
2022-08-01T09:47:33.651Z,1848.00
2022-08-01T09:48:33.634Z,1788.00
2022-08-01T09:49:49.627Z,1704.00
2022-08-01T09:50:34.584Z,1708.00
2022-08-01T09:51:58.707Z,1720.00
2022-08-01T09:52:34.578Z,1720.00
2022-08-01T09:53:33.561Z,1768.00
2022-08-01T09:54:33.565Z,1796.00
2022-08-01T09:55:33.536Z,1836.00
2022-08-01T09:56:33.526Z,1828.00
2022-08-01T09:57:33.547Z,1732.00
2022-08-01T09:58:33.502Z,1508.00
2022-08-01T09:59:56.684Z,1420.00
2022-08-01T10:00:45.407Z,1340.00
2022-08-01T10:01:36.662Z,1296.00
2022-08-01T10:02:34.116Z,1308.00
2022-08-01T10:03:33.500Z,1252.00
2022-08-01T10:04:33.435Z,1236.00
2022-08-01T10:06:09.193Z,1176.00
2022-08-01T10:06:33.442Z,1128.00
2022-08-01T10:07:43.008Z,1016.00
2022-08-01T10:08:34.390Z,1020.00
2022-08-01T10:09:35.875Z,996.00
2022-08-01T10:10:34.369Z,984.00
2022-08-01T10:11:36.114Z,964.00
2022-08-01T10:12:33.386Z,968.00
2022-08-01T10:13:36.454Z,1084.00
2022-08-01T10:14:33.359Z,1080.00
2022-08-01T10:15:37.754Z,1192.00
2022-08-01T10:16:33.304Z,1344.00
2022-08-01T10:17:50.459Z,1708.00
2022-08-01T10:18:34.297Z,2112.00
2022-08-01T10:19:33.278Z,1820.00
2022-08-01T10:20:33.253Z,1760.00
2022-08-01T10:21:47.646Z,1812.00
2022-08-01T10:22:35.626Z,1600.00
2022-08-01T10:23:39.590Z,1760.00
2022-08-01T10:24:34.221Z,1864.00
2022-08-01T10:25:42.982Z,1808.00
2022-08-01T10:26:34.189Z,1872.00
2022-08-01T10:27:36.358Z,1868.00
2022-08-01T10:28:33.217Z,1828.00
2022-08-01T10:29:59.029Z,1888.00
2022-08-01T10:30:34.150Z,1840.00
2022-08-01T10:31:33.144Z,1620.00
2022-08-01T10:32:33.128Z,1988.00
2022-08-01T10:33:51.725Z,2420.00
2022-08-01T10:34:34.109Z,2232.00
2022-08-01T10:35:46.818Z,2308.00
2022-08-01T10:36:34.090Z,2272.00
2022-08-01T10:37:34.068Z,2124.00
2022-08-01T10:38:33.080Z,2056.00
2022-08-01T10:39:33.045Z,2092.00
2022-08-01T10:40:33.036Z,2184.00
2022-08-01T10:41:33.035Z,2260.00
2022-08-01T10:42:33.015Z,2268.00
2022-08-01T10:43:33.023Z,2380.00
2022-08-01T10:44:32.996Z,2412.00
2022-08-01T10:45:33.018Z,2388.00
2022-08-01T10:46:32.974Z,2256.00
2022-08-01T10:47:49.741Z,2260.00
2022-08-01T10:48:33.982Z,2304.00
2022-08-01T10:49:33.083Z,2408.00
2022-08-01T10:50:32.937Z,2640.00
2022-08-01T10:51:52.275Z,2920.00
2022-08-01T10:52:39.184Z,2712.00
2022-08-01T10:53:42.566Z,2564.00
2022-08-01T10:54:33.896Z,2860.00
2022-08-01T10:55:32.873Z,3560.00
2022-08-01T10:56:32.858Z,3568.00
2022-08-01T10:57:32.843Z,3760.00
2022-08-01T10:58:35.643Z,4028.00
2022-08-01T10:59:51.134Z,3708.00
2022-08-01T11:00:33.835Z,3540.00
2022-08-01T11:01:32.888Z,3052.00
2022-08-01T11:02:32.986Z,2992.00
2022-08-01T11:03:55.570Z,3024.00
2022-08-01T11:04:34.249Z,3056.00
2022-08-01T11:05:33.089Z,3464.00
2022-08-01T11:06:32.749Z,3588.00
2022-08-01T11:07:34.891Z,3204.00
2022-08-01T11:08:32.778Z,3664.00
2022-08-01T11:09:37.552Z,3524.00
2022-08-01T11:10:33.719Z,4200.00
2022-08-01T11:11:37.463Z,3264.00
2022-08-01T11:12:33.711Z,3176.00
2022-08-01T11:13:32.682Z,3708.00
2022-08-01T11:14:54.607Z,4040.00
2022-08-01T11:15:33.652Z,3700.00
2022-08-01T11:16:32.647Z,3264.00
2022-08-01T11:17:32.675Z,3864.00
2022-08-01T11:18:33.613Z,3308.00
2022-08-01T11:19:32.619Z,3324.00
2022-08-01T11:20:32.814Z,3056.00
2022-08-01T11:21:56.880Z,2648.00
2022-08-01T11:22:33.569Z,2832.00
2022-08-01T11:23:35.898Z,2872.00
2022-08-01T11:24:32.566Z,2564.00
2022-08-01T11:26:03.872Z,2436.00
2022-08-01T11:26:33.530Z,2408.00
2022-08-01T11:27:33.702Z,2520.00
2022-08-01T11:28:35.588Z,2556.00
2022-08-01T11:29:32.489Z,3092.00
2022-08-01T11:30:32.514Z,3808.00
2022-08-01T11:31:37.667Z,3784.00
2022-08-01T11:32:52.631Z,4340.00
2022-08-01T11:33:33.458Z,4408.00
2022-08-01T11:34:32.447Z,3696.00
2022-08-01T11:35:32.428Z,3976.00
2022-08-01T11:36:57.583Z,3848.00
2022-08-01T11:37:33.448Z,3580.00
2022-08-01T11:38:32.432Z,4016.00
2022-08-01T11:39:36.811Z,3648.00
2022-08-01T11:40:33.387Z,3760.00
2022-08-01T11:41:36.932Z,4088.00
2022-08-01T11:42:33.354Z,3556.00
2022-08-01T11:43:32.373Z,4192.00
2022-08-01T11:44:32.347Z,3484.00
2022-08-01T11:45:32.331Z,3536.00
2022-08-01T11:46:32.330Z,3684.00
2022-08-01T11:47:32.299Z,4036.00
2022-08-01T11:48:32.289Z,4072.00
2022-08-01T11:49:32.300Z,3604.00
2022-08-01T11:50:32.278Z,3888.00
2022-08-01T11:51:32.251Z,3740.00
2022-08-01T11:52:32.251Z,3380.00
2022-08-01T11:53:32.233Z,3868.00
2022-08-01T11:54:34.824Z,4012.00
2022-08-01T11:55:32.248Z,3960.00
2022-08-01T11:56:33.417Z,3700.00
2022-08-01T11:57:33.885Z,3612.00
2022-08-01T11:58:32.175Z,3676.00
2022-08-01T11:59:38.029Z,4188.00
2022-08-01T12:00:33.174Z,3672.00
2022-08-01T12:01:32.144Z,3688.00
2022-08-01T12:02:32.177Z,3696.00
2022-08-01T12:03:33.429Z,3628.00
2022-08-01T12:04:32.118Z,3328.00
2022-08-01T12:05:32.134Z,3272.00
2022-08-01T12:06:32.097Z,3104.00
2022-08-01T12:07:32.076Z,3028.00
2022-08-01T12:08:32.069Z,3204.00
2022-08-01T12:09:32.058Z,2984.00
2022-08-01T12:10:32.051Z,3240.00
2022-08-01T12:11:36.992Z,3212.00
2022-08-01T12:12:33.024Z,3052.00
2022-08-01T12:13:32.013Z,3184.00
2022-08-01T12:14:32.004Z,3300.00
2022-08-01T12:15:31.993Z,3208.00
2022-08-01T12:16:33.123Z,3056.00
2022-08-01T12:17:31.979Z,3060.00
2022-08-01T12:18:31.958Z,3248.00
2022-08-01T12:19:31.949Z,3300.00
2022-08-01T12:20:32.353Z,3400.00
2022-08-01T12:21:31.946Z,3268.00
2022-08-01T12:22:31.918Z,3276.00
2022-08-01T12:23:31.902Z,3304.00
2022-08-01T12:24:31.904Z,2616.00
2022-08-01T12:25:31.913Z,2380.00
2022-08-01T12:26:32.434Z,2264.00
2022-08-01T12:27:31.962Z,2156.00
2022-08-01T12:28:31.865Z,2136.00
2022-08-01T12:29:31.837Z,2152.00
2022-08-01T12:30:32.047Z,2180.00
2022-08-01T12:31:31.838Z,2044.00
2022-08-01T12:32:35.958Z,2004.00
2022-08-01T12:33:31.800Z,2628.00
2022-08-01T12:34:31.807Z,2604.00
2022-08-01T12:35:31.787Z,2172.00
2022-08-01T12:36:31.771Z,2056.00
2022-08-01T12:37:31.841Z,2044.00
2022-08-01T12:38:31.746Z,2080.00
2022-08-01T12:39:31.729Z,2092.00
2022-08-01T12:40:31.720Z,1876.00